Terminal Aerodrome Forecast
Issued by NWS

Home | Current Version | Previous Version | Text Only | Print | Product List | Glossary On
Versions: 1 2 3 4 5 6 7 8 9 10 11 12 13 14 15 16 17 18 19
000
FTUS45 KFGZ 091735 AAA
TAFGCN
TAF AMD
KGCN 091735Z 0918/1018 VRB04KT P6SM OVC006
     FM091900 23007KT P6SM SCT150 BKN250
     FM100100 VRB04KT P6SM FEW030 SCT250
     FM100700 VRB04KT P6SM BKN030 BKN250
     FM101600 21008KT P6SM FEW030 SCT250=

USA.gov is the U.S. government's official web portal to all federal, state and local government web resources and services.